Huntsville International Carl T Jones Field Huntsville US
ICAO: KHSV
IATA: HSV
Category: Large
Scheduled Services: Yes

Elevation: 629 ft
TransAlt. 18000 ft.

Airport Communications:
APP:118.05
ATIS:121.25
CLNC DEL:120.35
CTAF:127.6
DEP:118.05
GND:121.9
ANNISTON RDO:122.2
TWR:127.6
UNICOM:122.95

KHSV Zoom In..

If Map Doesn't Load, Click Here

Runways:

(A) RW 18L length 10006 ft width 150 ft
ILS 111.90 / hdg 182

(B) RW 18R length 12600 ft width 150 ft
ILS 109.30 / hdg 182

(C) RW 36L length 12600 ft width 150 ft
ILS 108.50 / hdg 2

(D) RW 36R length 10006 ft width 150 ft
ILS 109.55 / hdg 2

Location; KHSV
Day. 24 / Time. 04.53 Zulu
* Altimeter: 30.03
* Temperature: 23° c. 73.4°f.
* Wind from: 000° Speed 00 kn.
Dewpoint: 22° c.
Visibility: 10 Statute Miles.
Clouds: Scattered 7000 ft.
Clouds: Broken 9000 ft.
Clouds: Overcast 12000 ft.
Conditions: Light Rain.

KHSV 240453Z 00000KT 10SM -RA SCT070 BKN090 OVC120 23/22 A3003 RMK AO2 RAB0356 SLP162 P0004 T02280222


Wind - Calm.

 
 
jpsmedia.com for Web Design worldairports.se 2018   terms of use